Time;durP1;ratioP1;P1;durP2;ratioP2;P2;SDS_P1;SDS_P2;PMS_P1;PMS_P2;Temp;Humidity;BMP_temperature;BMP_pressure;BME280_temperature;BME280_humidity;BME280_pressure;Samples;Min_cycle;Max_cycle;Signal;HPM_P1;HPM_P2
2022/06/24 00:02:11;;;;;;;5.65;4.10;;;;;;;16.45;100.00;99844.40;1690735;84;21441;-69
2022/06/24 00:04:38;;;;;;;7.10;3.87;;;;;;;16.43;100.00;99838.33;1668935;84;21195;-67
2022/06/24 00:07:15;;;;;;;9.80;5.28;;;;;;;16.46;100.00;99837.27;1690470;84;21530;-68
2022/06/24 00:09:42;;;;;;;5.78;3.83;;;;;;;16.48;100.00;99842.86;1690813;84;21564;-68
2022/06/24 00:12:11;;;;;;;8.38;6.20;;;;;;;16.49;100.00;99843.22;1690545;84;21014;-68
2022/06/24 00:14:39;;;;;;;5.30;4.40;;;;;;;16.51;100.00;99843.97;1690899;84;21026;-68
2022/06/24 00:17:08;;;;;;;9.90;4.05;;;;;;;16.53;100.00;99843.88;1690345;84;21226;-69
2022/06/24 00:19:54;;;;;;;9.78;5.83;;;;;;;16.55;100.00;99836.17;1690814;84;21021;-68
2022/06/24 00:22:22;;;;;;;5.62;3.80;;;;;;;16.56;100.00;99831.70;1690442;84;21494;-68
2022/06/24 00:24:49;;;;;;;6.97;3.83;;;;;;;16.56;100.00;99844.55;1691056;84;21037;-67
2022/06/24 00:27:24;;;;;;;6.80;5.03;;;;;;;16.56;100.00;99835.24;1668522;84;21038;-69
2022/06/24 00:29:51;;;;;;;6.33;3.67;;;;;;;16.57;100.00;99836.93;1693277;80;21124;-69
2022/06/24 00:32:33;;;;;;;5.70;4.20;;;;;;;16.58;100.00;99830.64;1693528;84;21005;-68
2022/06/24 00:35:05;;;;;;;7.87;3.58;;;;;;;16.57;100.00;99816.99;1693827;84;21061;-69
2022/06/24 00:37:33;;;;;;;6.08;3.50;;;;;;;16.58;100.00;99821.34;1693500;83;20982;-68
2022/06/24 00:40:16;;;;;;;7.70;4.55;;;;;;;16.57;100.00;99818.32;1693791;84;21033;-71
2022/06/24 00:42:46;;;;;;;7.50;4.33;;;;;;;16.58;100.00;99817.35;1693494;84;21400;-71
2022/06/24 00:45:34;;;;;;;5.65;3.75;;;;;;;16.58;100.00;99815.17;1690305;80;21005;-69
2022/06/24 00:48:03;;;;;;;7.05;4.45;;;;;;;16.58;100.00;99825.81;1689434;85;20993;-69
2022/06/24 00:50:32;;;;;;;9.53;4.28;;;;;;;16.55;100.00;99823.37;1682700;83;21544;-69
2022/06/24 00:53:00;;;;;;;10.20;4.10;;;;;;;16.55;100.00;99834.84;1721037;83;21072;-70
2022/06/24 00:55:32;;;;;;;8.78;4.30;;;;;;;16.55;100.00;99830.02;1721333;83;21098;-69
2022/06/24 00:57:59;;;;;;;8.15;4.53;;;;;;;16.53;100.00;99822.13;1720972;83;21468;-70
2022/06/24 01:00:31;;;;;;;7.45;3.62;;;;;;;16.51;100.00;99810.75;1727941;80;21052;-68
2022/06/24 01:03:03;;;;;;;6.78;4.12;;;;;;;16.46;100.00;99804.89;1731825;82;21551;-69
2022/06/24 01:05:31;;;;;;;5.12;3.90;;;;;;;16.45;100.00;99820.93;1732142;82;21329;-67
2022/06/24 01:07:59;;;;;;;7.05;4.30;;;;;;;16.44;100.00;99813.44;1731734;82;21837;-67
2022/06/24 01:10:26;;;;;;;10.05;4.12;;;;;;;16.41;100.00;99815.47;1731938;82;20997;-66
2022/06/24 01:12:52;;;;;;;7.22;4.00;;;;;;;16.35;100.00;99818.03;1731818;82;20961;-67
2022/06/24 01:15:20;;;;;;;11.68;4.22;;;;;;;16.32;100.00;99810.28;1773629;79;21286;-69
2022/06/24 01:17:47;;;;;;;11.40;4.42;;;;;;;16.31;100.00;99811.22;1791245;80;20918;-71
2022/06/24 01:20:14;;;;;;;10.63;4.87;;;;;;;16.29;100.00;99815.80;1791520;80;21116;-69
2022/06/24 01:22:41;;;;;;;8.53;4.30;;;;;;;16.28;100.00;99819.39;1791066;80;21580;-68
2022/06/24 01:25:08;;;;;;;10.03;4.25;;;;;;;16.27;100.00;99831.84;1791555;80;20977;-68
2022/06/24 01:27:35;;;;;;;9.58;5.00;;;;;;;16.26;100.00;99825.28;1791151;80;20941;-71
2022/06/24 01:30:03;;;;;;;9.90;4.97;;;;;;;16.25;100.00;99833.73;1793206;78;21435;-71
2022/06/24 01:32:30;;;;;;;9.45;4.20;;;;;;;16.25;100.00;99836.39;1783533;80;21086;-72
2022/06/24 01:34:57;;;;;;;6.58;4.53;;;;;;;16.23;100.00;99828.15;1752539;81;20978;-70
2022/06/24 01:37:24;;;;;;;5.53;4.30;;;;;;;16.22;100.00;99835.73;1783336;79;20994;-70
2022/06/24 01:39:51;;;;;;;15.53;5.20;;;;;;;16.22;100.00;99839.71;1762498;81;21504;-70
2022/06/24 01:42:17;;;;;;;8.03;4.08;;;;;;;16.22;100.00;99833.95;1762150;81;21055;-70
2022/06/24 01:44:44;;;;;;;4.85;4.25;;;;;;;16.23;100.00;99832.98;1740698;80;21089;-69
2022/06/24 01:47:11;;;;;;;7.08;4.30;;;;;;;16.24;100.00;99828.52;1695688;84;21538;-71
2022/06/24 01:49:37;;;;;;;6.35;4.17;;;;;;;16.26;100.00;99829.27;1759836;81;21038;-68
2022/06/24 01:52:04;;;;;;;8.73;4.60;;;;;;;16.27;100.00;99827.00;1759778;81;21466;-71
2022/06/24 01:54:31;;;;;;;7.92;4.30;;;;;;;16.28;100.00;99819.39;1760938;80;21013;-70
2022/06/24 01:56:58;;;;;;;16.82;5.28;;;;;;;16.29;100.00;99821.96;1792797;79;21174;-69
2022/06/24 01:59:25;;;;;;;5.58;4.42;;;;;;;16.30;100.00;99813.51;1778992;78;21029;-64
2022/06/24 02:01:52;;;;;;;5.60;4.10;;;;;;;16.31;100.00;99810.77;1743660;81;21003;-67
2022/06/24 02:04:18;;;;;;;5.08;4.03;;;;;;;16.32;100.00;99810.28;1718629;82;21020;-68
2022/06/24 02:06:46;;;;;;;10.48;4.83;;;;;;;16.33;100.00;99810.64;1756411;81;21468;-67
2022/06/24 02:09:16;;;;;;;12.05;4.50;;;;;;;16.33;100.00;99814.62;1747474;81;21679;-67
2022/06/24 02:14:26;;;;;;;7.05;4.50;;;;;;;16.35;100.00;99815.38;1742299;80;21066;-70
2022/06/24 02:16:52;;;;;;;5.35;4.05;;;;;;;16.37;100.00;99810.81;1722144;82;21005;-69
2022/06/24 02:19:20;;;;;;;8.93;4.00;;;;;;;16.39;100.00;99816.05;1726148;82;21532;-68
2022/06/24 02:21:48;;;;;;;5.50;3.52;;;;;;;16.40;100.00;99815.92;1720942;82;21166;-69
2022/06/24 02:44:07;;;;;;;5.42;4.05;;;;;;;16.46;100.00;99812.87;1711678;78;20970;-68
2022/06/24 02:46:34;;;;;;;10.68;3.80;;;;;;;16.46;100.00;99816.85;1684213;84;21494;-70
2022/06/24 02:49:01;;;;;;;10.48;4.62;;;;;;;16.47;100.00;99813.71;1655046;85;20990;-69
2022/06/24 02:51:28;;;;;;;6.10;3.62;;;;;;;16.48;100.00;99809.63;1676573;83;21451;-69
2022/06/24 02:53:54;;;;;;;7.10;3.90;;;;;;;16.50;100.00;99822.34;1719988;82;21860;-70
2022/06/24 02:56:21;;;;;;;7.37;3.70;;;;;;;16.51;100.00;99816.55;1697562;82;21531;-70
2022/06/24 02:58:48;;;;;;;13.40;3.77;;;;;;;16.51;100.00;99824.03;1677882;84;20987;-69
2022/06/24 03:01:15;;;;;;;8.00;3.52;;;;;;;16.53;100.00;99818.14;1700678;80;20929;-67
2022/06/24 03:03:42;;;;;;;8.03;3.62;;;;;;;16.56;100.00;99814.42;1715372;83;21006;-68
2022/06/24 03:06:08;;;;;;;8.55;3.27;;;;;;;16.58;100.00;99817.35;1716109;83;21260;-67
2022/06/24 03:08:35;;;;;;;6.70;3.20;;;;;;;16.61;100.00;99811.46;1716361;83;20996;-67
2022/06/24 03:11:03;;;;;;;9.83;3.70;;;;;;;16.64;100.00;99816.11;1716407;83;20934;-67
2022/06/24 03:13:30;;;;;;;5.05;3.33;;;;;;;16.67;100.00;99815.05;1716192;83;21533;-67
2022/06/24 03:15:56;;;;;;;6.00;3.37;;;;;;;16.70;100.00;99821.47;1716566;83;21009;-67
2022/06/24 03:18:24;;;;;;;6.08;3.33;;;;;;;16.72;99.82;99814.25;1708905;83;21764;-68
2022/06/24 03:20:51;;;;;;;5.50;3.00;;;;;;;16.76;99.77;99811.28;1681971;85;21013;-69
2022/06/24 03:23:17;;;;;;;4.75;3.37;;;;;;;16.81;99.54;99812.33;1682583;85;21046;-68
2022/06/24 03:25:45;;;;;;;7.97;3.20;;;;;;;16.87;99.33;99805.27;1681980;83;21038;-68
2022/06/24 03:28:12;;;;;;;4.70;3.22;;;;;;;16.95;98.70;99811.39;1682024;85;21022;-67
2022/06/24 03:30:39;;;;;;;18.00;3.50;;;;;;;17.02;97.29;99808.67;1717799;79;21120;-70
2022/06/24 03:33:06;;;;;;;7.25;3.00;;;;;;;17.07;96.43;99809.69;1741871;82;20978;-69
2022/06/24 03:35:33;;;;;;;6.65;3.02;;;;;;;17.09;96.43;99821.08;1733090;82;21513;-69
2022/06/24 03:38:02;;;;;;;5.97;2.92;;;;;;;17.11;95.89;99821.83;1733234;82;21001;-69
2022/06/24 03:40:29;;;;;;;4.85;2.87;;;;;;;17.15;95.56;99822.00;1725719;82;21000;-68
2022/06/24 03:42:56;;;;;;;7.20;3.33;;;;;;;17.18;95.27;99820.44;1727943;82;21168;-70
2022/06/24 03:45:27;;;;;;;7.30;2.77;;;;;;;17.20;94.84;99815.88;1702582;79;21453;-69
2022/06/24 03:47:53;;;;;;;5.95;2.67;;;;;;;17.23;93.99;99821.00;1659585;85;21481;-69
2022/06/24 03:51:07;;;;;;;6.85;3.52;;;;;;;17.29;93.22;99822.37;1795243;79;22533;-69
2022/06/24 03:53:34;;;;;;;4.25;2.87;;;;;;;17.28;93.20;99817.53;1708341;83;21008;-68
2022/06/24 03:56:00;;;;;;;9.53;3.17;;;;;;;17.32;93.25;99817.70;1692742;82;21231;-68
2022/06/24 03:58:27;;;;;;;5.12;3.08;;;;;;;17.35;93.20;99822.80;1703805;82;20997;-69
2022/06/24 04:01:03;;;;;;;10.48;3.30;;;;;;;17.37;92.48;99822.70;1665524;81;21128;-70
2022/06/24 04:03:30;;;;;;;4.17;2.98;;;;;;;17.45;92.54;99824.81;1632744;87;21585;-70
2022/06/24 04:05:56;;;;;;;5.12;2.77;;;;;;;17.50;91.94;99822.67;1637264;86;21125;-70
2022/06/24 04:08:23;;;;;;;4.25;2.77;;;;;;;17.58;91.44;99825.66;1641926;86;21143;-68
2022/06/24 04:10:51;;;;;;;4.05;3.30;;;;;;;17.64;90.98;99827.86;1627484;86;21065;-69
2022/06/24 04:13:17;;;;;;;9.30;3.00;;;;;;;17.71;90.17;99837.11;1636576;86;21010;-69
2022/06/24 04:15:49;;;;;;;8.88;2.87;;;;;;;17.78;89.62;99828.20;1659825;82;21065;-70
2022/06/24 04:18:16;;;;;;;4.50;3.10;;;;;;;17.83;88.94;99827.45;1721988;82;21116;-69
2022/06/24 04:20:43;;;;;;;6.03;2.72;;;;;;;17.90;88.31;99829.16;1721512;82;21269;-71
2022/06/24 04:23:09;;;;;;;5.50;3.10;;;;;;;17.97;88.00;99826.45;1718717;82;21041;-69
2022/06/24 04:25:36;;;;;;;6.78;2.65;;;;;;;18.06;87.67;99828.45;1706481;82;21081;-70
2022/06/24 04:28:03;;;;;;;7.47;2.80;;;;;;;18.16;87.14;99829.45;1708413;82;21096;-70
2022/06/24 04:30:30;;;;;;;8.80;3.00;;;;;;;18.27;86.67;99834.01;1687934;81;20998;-67
2022/06/24 04:32:58;;;;;;;7.08;2.52;;;;;;;18.37;86.01;99839.50;1702924;82;21234;-67
2022/06/24 04:35:25;;;;;;;8.48;2.83;;;;;;;18.44;85.63;99840.75;1738695;82;22160;-66
2022/06/24 04:37:51;;;;;;;5.83;2.67;;;;;;;18.54;84.65;99840.45;1738870;82;21026;-67
2022/06/24 04:40:18;;;;;;;5.42;2.50;;;;;;;18.59;83.70;99842.28;1738664;82;21202;-66
2022/06/24 04:42:46;;;;;;;4.85;2.58;;;;;;;18.68;83.79;99847.87;1738943;82;21162;-66
2022/06/24 04:45:13;;;;;;;8.08;2.98;;;;;;;18.72;83.23;99853.34;1733955;79;21169;-70
2022/06/24 04:47:40;;;;;;;5.62;2.72;;;;;;;18.81;82.42;99844.69;1644550;87;21096;-69
2022/06/24 04:50:08;;;;;;;10.15;2.62;;;;;;;18.90;82.15;99847.14;1644851;87;21056;-69
2022/06/24 04:52:34;;;;;;;3.42;2.70;;;;;;;18.93;81.02;99846.90;1645140;87;21666;-68
2022/06/24 04:55:01;;;;;;;7.70;2.75;;;;;;;18.96;81.03;99852.02;1645576;87;21071;-69
2022/06/24 04:57:28;;;;;;;6.22;2.70;;;;;;;19.02;80.79;99855.04;1645177;87;21177;-71
2022/06/24 04:59:55;;;;;;;7.45;2.90;;;;;;;19.06;80.32;99856.52;1645136;87;21113;-69
2022/06/24 05:02:24;;;;;;;5.65;2.75;;;;;;;19.12;79.94;99857.00;1723472;82;21502;-68
2022/06/24 05:04:50;;;;;;;4.25;2.50;;;;;;;19.18;79.97;99851.20;1728926;83;21633;-70
2022/06/24 05:07:17;;;;;;;4.83;2.33;;;;;;;19.28;79.47;99850.88;1697812;83;21107;-69
2022/06/24 05:09:46;;;;;;;3.45;2.80;;;;;;;19.39;78.88;99845.52;1728698;83;21551;-69
2022/06/24 05:12:13;;;;;;;4.53;2.52;;;;;;;19.53;77.73;99843.59;1728774;83;21077;-69
2022/06/24 05:14:39;;;;;;;7.58;2.60;;;;;;;19.67;76.98;99840.70;1728859;83;21061;-69
2022/06/24 05:17:06;;;;;;;6.40;2.65;;;;;;;19.76;75.23;99848.02;1727167;80;21612;-67
2022/06/24 05:19:33;;;;;;;7.75;2.45;;;;;;;19.87;74.72;99846.64;1728634;83;21037;-66
2022/06/24 05:22:00;;;;;;;6.92;2.65;;;;;;;19.95;74.08;99848.72;1728554;83;21336;-66
2022/06/24 05:24:26;;;;;;;5.08;2.80;;;;;;;20.03;73.37;99850.76;1728427;83;21020;-67
2022/06/24 05:26:54;;;;;;;7.90;2.83;;;;;;;20.15;73.27;99853.77;1728451;83;21141;-66
2022/06/24 05:29:21;;;;;;;14.00;3.08;;;;;;;20.36;72.22;99852.52;1728588;83;21135;-68
2022/06/24 05:31:48;;;;;;;6.65;2.50;;;;;;;20.59;71.01;99856.47;1718597;79;21102;-70
2022/06/24 05:34:15;;;;;;;4.17;2.67;;;;;;;20.73;70.88;99861.04;1709228;84;21152;-70
2022/06/24 05:36:42;;;;;;;5.30;2.60;;;;;;;20.92;70.25;99864.84;1708904;82;21144;-69
2022/06/24 05:39:09;;;;;;;5.55;2.83;;;;;;;21.01;69.29;99860.05;1709052;84;21042;-71
2022/06/24 05:41:39;;;;;;;5.30;2.80;;;;;;;21.09;68.53;99862.91;1709266;83;21166;-69
2022/06/24 05:44:06;;;;;;;6.42;2.40;;;;;;;21.14;69.11;99868.74;1709320;84;21086;-71
2022/06/24 05:46:34;;;;;;;6.30;2.60;;;;;;;21.23;68.85;99865.74;1678082;81;21114;-70
2022/06/24 05:49:01;;;;;;;6.60;2.40;;;;;;;21.35;67.87;99866.55;1647483;87;21031;-71
2022/06/24 05:51:28;;;;;;;5.05;2.65;;;;;;;21.46;67.77;99871.83;1647561;86;21540;-69
2022/06/24 05:56:39;;;;;;;6.05;2.72;;;;;;;21.74;66.99;99868.08;1675108;85;21033;-69
2022/06/24 05:59:06;;;;;;;5.12;2.55;;;;;;;21.91;66.34;99869.29;1674916;85;21124;-70
2022/06/24 06:01:33;;;;;;;11.18;2.90;;;;;;;22.03;65.90;99876.73;1646774;81;21082;-71
2022/06/24 06:04:00;;;;;;;3.42;2.40;;;;;;;22.16;64.87;99867.95;1598204;89;21114;-71
2022/06/24 06:06:27;;;;;;;4.95;2.90;;;;;;;22.21;65.09;99873.78;1598113;88;21082;-71
2022/06/24 06:08:54;;;;;;;8.38;2.83;;;;;;;22.30;65.44;99875.62;1616870;88;21132;-71
2022/06/24 06:11:22;;;;;;;6.05;2.77;;;;;;;22.37;64.57;99875.93;1616153;88;21507;-70
2022/06/24 06:13:53;;;;;;;6.85;2.90;;;;;;;22.40;63.15;99883.69;1598105;89;21095;-70
2022/06/24 06:16:22;;;;;;;7.60;3.15;;;;;;;22.32;63.14;99884.39;1611879;81;21117;-69
2022/06/24 06:18:49;;;;;;;5.70;2.80;;;;;;;22.21;62.98;99881.82;1633130;87;21588;-69
2022/06/24 06:21:16;;;;;;;11.15;3.40;;;;;;;22.15;63.68;99883.67;1633124;87;21113;-69
2022/06/24 06:23:43;;;;;;;8.25;3.30;;;;;;;22.14;63.82;99884.67;1633085;87;21580;-70
2022/06/24 06:26:10;;;;;;;5.78;3.17;;;;;;;22.12;64.01;99883.95;1632714;87;21088;-70
2022/06/24 06:28:38;;;;;;;4.55;2.52;;;;;;;22.10;63.54;99891.28;1632791;87;21104;-71
2022/06/24 06:31:05;;;;;;;8.10;3.47;;;;;;;22.03;62.93;99890.14;1632422;84;21237;-67
2022/06/24 06:33:32;;;;;;;10.10;3.40;;;;;;;21.93;63.24;99894.13;1632869;87;21060;-68
2022/06/24 06:36:08;;;;;;;5.92;3.22;;;;;;;21.83;63.97;99888.70;1633070;87;21892;-67
2022/06/24 06:38:34;;;;;;;7.45;3.15;;;;;;;21.77;64.12;99881.23;1632730;87;21116;-66
2022/06/24 06:41:01;;;;;;;8.65;3.60;;;;;;;21.79;64.91;99881.95;1632889;87;21144;-68
2022/06/24 06:43:28;;;;;;;8.85;3.02;;;;;;;21.83;64.50;99880.67;1632763;87;21566;-68
2022/06/24 06:45:55;;;;;;;10.15;3.20;;;;;;;21.87;64.63;99886.63;1631367;84;24624;-71
2022/06/24 06:48:22;;;;;;;7.50;3.27;;;;;;;21.89;64.69;99881.48;1624376;88;21230;-70
2022/06/24 06:50:57;;;;;;;6.17;3.30;;;;;;;21.96;64.92;99883.97;1624461;88;21140;-70
2022/06/24 06:53:24;;;;;;;9.23;3.52;;;;;;;22.06;65.48;99890.70;1624246;87;21088;-69
2022/06/24 06:55:53;;;;;;;6.62;3.47;;;;;;;22.15;63.19;99882.33;1624411;87;21072;-70
2022/06/24 06:58:21;;;;;;;7.25;3.27;;;;;;;22.21;63.76;99888.53;1624209;88;21067;-70
2022/06/24 07:00:50;;;;;;;6.47;3.22;;;;;;;22.27;63.88;99894.70;1628501;84;21026;-68
2022/06/24 07:03:18;;;;;;;7.95;3.50;;;;;;;22.31;62.29;99892.06;1691891;84;21077;-68
2022/06/24 07:05:46;;;;;;;4.55;3.50;;;;;;;22.31;63.48;99896.09;1692008;84;21105;-69
2022/06/24 07:08:14;;;;;;;8.38;3.35;;;;;;;22.34;63.71;99895.84;1691989;84;21064;-68
2022/06/24 07:10:44;;;;;;;5.78;3.42;;;;;;;22.36;64.15;99912.65;1692159;84;21319;-68
2022/06/24 07:13:11;;;;;;;6.60;3.45;;;;;;;22.36;63.08;99903.26;1691249;84;21172;-69
2022/06/24 07:15:57;;;;;;;6.33;3.00;;;;;;;22.33;62.47;99903.52;1692342;82;21127;-69
2022/06/24 07:18:24;;;;;;;6.53;3.22;;;;;;;22.18;61.99;99896.33;1650505;86;21076;-70
2022/06/24 07:20:52;;;;;;;10.50;3.72;;;;;;;22.20;62.06;99905.55;1650631;86;21025;-71
2022/06/24 07:23:19;;;;;;;4.03;3.15;;;;;;;22.12;62.22;99899.55;1650537;86;21598;-70
2022/06/24 07:25:47;;;;;;;8.40;3.27;;;;;;;22.08;62.87;99898.61;1650561;86;21217;-71
2022/06/24 07:28:16;;;;;;;4.15;3.00;;;;;;;22.12;63.46;99901.39;1650163;86;21137;-70
2022/06/24 07:31:14;;;;;;;8.00;3.27;;;;;;;22.23;63.08;99901.81;1650454;85;21089;-72
2022/06/24 07:33:41;;;;;;;6.45;3.70;;;;;;;22.33;62.97;99906.69;1656771;85;21533;-70
2022/06/24 07:36:07;;;;;;;7.50;3.60;;;;;;;22.38;61.35;99901.28;1615843;88;21087;-70
2022/06/24 07:38:34;;;;;;;4.60;3.02;;;;;;;22.38;61.90;99904.44;1656882;86;21203;-70
2022/06/24 07:41:01;;;;;;;6.67;3.50;;;;;;;22.45;61.73;99900.21;1615942;88;21127;-70
2022/06/24 07:43:30;;;;;;;4.08;3.42;;;;;;;22.49;61.53;99898.11;1657032;85;21065;-69
2022/06/24 07:45:57;;;;;;;6.78;3.40;;;;;;;22.48;61.58;99896.44;1616381;83;21064;-69
2022/06/24 07:48:24;;;;;;;9.85;3.55;;;;;;;22.52;61.30;99902.72;1676960;85;21378;-68
2022/06/24 07:50:51;;;;;;;6.22;3.55;;;;;;;22.53;60.47;99900.38;1677118;85;21255;-70
2022/06/24 07:53:17;;;;;;;5.67;3.12;;;;;;;22.54;61.34;99902.56;1693489;84;21070;-69
2022/06/24 07:58:29;;;;;;;6.97;3.47;;;;;;;22.66;60.88;99904.15;1708149;83;21045;-69
2022/06/24 08:00:56;;;;;;;7.00;3.40;;;;;;;22.67;60.47;99905.83;1708376;80;21046;-68
2022/06/24 08:03:23;;;;;;;7.15;3.15;;;;;;;22.72;61.00;99904.91;1667679;85;21548;-70
2022/06/24 08:05:49;;;;;;;6.40;3.42;;;;;;;22.77;60.04;99901.30;1667502;86;21112;-70
2022/06/24 08:08:15;;;;;;;5.78;3.22;;;;;;;22.81;60.45;99901.38;1667567;86;21064;-70
2022/06/24 08:10:43;;;;;;;5.35;3.55;;;;;;;22.88;60.77;99904.86;1667410;86;21083;-70
2022/06/24 08:13:09;;;;;;;7.42;3.37;;;;;;;23.01;60.79;99906.80;1667576;86;21123;-70
2022/06/24 08:15:36;;;;;;;5.70;3.67;;;;;;;23.13;60.06;99900.27;1667396;86;21147;-70
2022/06/24 08:18:03;;;;;;;6.78;3.67;;;;;;;23.23;60.53;99899.75;1708442;83;21062;-71
2022/06/24 08:20:29;;;;;;;8.08;3.45;;;;;;;23.37;60.18;99900.30;1699918;83;21083;-71
2022/06/24 08:22:56;;;;;;;11.78;3.30;;;;;;;23.48;60.02;99897.45;1716432;83;21054;-70
2022/06/24 08:25:23;;;;;;;9.83;3.62;;;;;;;23.62;59.38;99894.28;1716782;83;21066;-70
2022/06/24 08:27:51;;;;;;;6.70;3.87;;;;;;;23.77;58.75;99887.14;1716509;83;21143;-71
2022/06/24 08:30:17;;;;;;;5.95;3.27;;;;;;;23.92;58.74;99895.05;1708137;82;21020;-72
2022/06/24 08:32:44;;;;;;;8.43;3.90;;;;;;;24.10;58.81;99884.36;1693255;79;21088;-67
2022/06/24 08:35:11;;;;;;;7.47;3.50;;;;;;;24.24;58.44;99876.27;1688086;85;21092;-67
2022/06/24 08:37:38;;;;;;;8.43;4.00;;;;;;;24.43;57.00;99880.20;1688378;85;21077;-67
2022/06/24 08:40:07;;;;;;;6.03;3.75;;;;;;;24.65;56.69;99880.78;1688343;85;21305;-67
2022/06/24 08:42:33;;;;;;;9.30;6.05;;;;;;;24.80;55.07;99879.25;1688519;83;21096;-68
2022/06/24 08:45:01;;;;;;;10.35;4.97;;;;;;;25.01;53.47;99878.08;1688316;85;21041;-69
2022/06/24 08:47:28;;;;;;;6.55;4.05;;;;;;;25.16;53.41;99875.14;1680873;80;21083;-71
2022/06/24 08:49:55;;;;;;;5.72;3.60;;;;;;;25.36;53.48;99869.59;1701406;84;21171;-72
2022/06/24 08:52:22;;;;;;;7.55;3.70;;;;;;;25.56;53.58;99873.77;1700602;84;21604;-71
2022/06/24 08:54:49;;;;;;;4.90;3.25;;;;;;;25.81;52.82;99876.58;1701390;84;21096;-72
2022/06/24 08:57:17;;;;;;;5.75;3.30;;;;;;;26.00;52.31;99876.38;1701463;84;21620;-70
2022/06/24 08:59:45;;;;;;;7.20;3.58;;;;;;;26.19;51.59;99879.30;1701552;84;21133;-71
2022/06/24 09:02:14;;;;;;;6.58;3.33;;;;;;;26.42;50.22;99872.78;1646182;81;21109;-70
2022/06/24 09:04:46;;;;;;;7.20;3.42;;;;;;;26.63;45.83;99870.15;1631132;87;22142;-73
2022/06/24 09:07:26;;;;;;;8.05;3.60;;;;;;;26.85;42.53;99866.80;1632972;87;21610;-70
2022/06/24 09:10:01;;;;;;;11.48;3.58;;;;;;;27.07;41.89;99867.11;1633393;87;21164;-70
2022/06/24 09:12:38;;;;;;;6.72;3.65;;;;;;;27.38;41.95;99854.61;1633642;87;21086;-70
2022/06/24 09:15:08;;;;;;;4.45;4.05;;;;;;;27.68;42.26;99861.63;1633465;87;21090;-71
2022/06/24 09:17:36;;;;;;;6.90;4.80;;;;;;;28.03;41.21;99853.56;1677948;79;21059;-68
2022/06/24 09:20:13;;;;;;;4.30;3.85;;;;;;;28.44;41.15;99852.49;1699332;84;21112;-68
2022/06/24 09:22:40;;;;;;;11.57;3.77;;;;;;;28.76;39.89;99861.41;1686674;85;20973;-67
2022/06/24 09:25:07;;;;;;;10.98;3.77;;;;;;;29.01;39.01;99860.22;1686721;85;21057;-68
2022/06/24 09:27:35;;;;;;;5.65;4.42;;;;;;;29.14;38.12;99861.48;1686619;85;21096;-71
2022/06/24 09:30:02;;;;;;;10.82;6.90;;;;;;;29.04;37.94;99857.13;1704276;83;21107;-69
2022/06/24 09:32:29;;;;;;;7.10;4.58;;;;;;;28.82;37.32;99855.28;1715312;81;20987;-70
2022/06/24 09:35:07;;;;;;;7.97;4.10;;;;;;;28.72;38.29;99868.24;1729644;83;21038;-72
2022/06/24 09:37:40;;;;;;;9.45;4.72;;;;;;;28.70;37.83;99855.39;1758310;81;21500;-71
2022/06/24 09:40:25;;;;;;;8.30;4.97;;;;;;;28.68;37.95;99848.78;1730037;82;21035;-71
2022/06/24 09:42:54;;;;;;;8.30;3.80;;;;;;;28.71;38.29;99843.52;1758305;81;21203;-70
2022/06/24 09:45:21;;;;;;;10.35;3.77;;;;;;;28.64;36.97;99841.55;1699352;84;21107;-70
2022/06/24 09:47:52;;;;;;;9.33;3.98;;;;;;;28.28;36.97;99845.31;1686256;83;21106;-71
2022/06/24 09:50:20;;;;;;;10.20;4.20;;;;;;;27.85;37.45;99846.20;1754888;81;21091;-70
2022/06/24 09:52:47;;;;;;;6.80;4.12;;;;;;;27.53;38.02;99852.02;1732043;82;21057;-70
2022/06/24 09:55:14;;;;;;;5.50;3.90;;;;;;;27.20;38.49;99843.16;1747386;82;21191;-70
2022/06/24 09:57:41;;;;;;;7.90;3.70;;;;;;;27.07;39.01;99853.61;1747304;82;21058;-70
2022/06/24 10:02:55;;;;;;;5.17;3.30;;;;;;;26.77;39.70;99856.81;1719475;80;21013;-70
2022/06/24 10:05:22;;;;;;;5.42;3.50;;;;;;;26.53;40.19;99862.17;1710281;83;21037;-71
2022/06/24 10:07:49;;;;;;;4.37;3.67;;;;;;;26.40;40.76;99855.06;1710284;83;21106;-71
2022/06/24 10:10:16;;;;;;;5.00;3.70;;;;;;;26.41;39.90;99852.69;1710462;83;21017;-71
2022/06/24 10:12:50;;;;;;;7.95;3.85;;;;;;;26.63;40.51;99851.24;1710787;83;21482;-71
2022/06/24 10:15:18;;;;;;;7.08;3.45;;;;;;;26.95;38.63;99845.84;1710863;81;21089;-70
2022/06/24 10:17:47;;;;;;;7.33;3.60;;;;;;;27.04;39.27;99843.14;1712357;80;21125;-69
2022/06/24 10:20:15;;;;;;;5.65;3.70;;;;;;;27.17;38.81;99851.55;1709493;83;21147;-68
2022/06/24 10:22:46;;;;;;;8.85;3.72;;;;;;;27.18;38.69;99851.39;1709495;83;21138;-69
2022/06/24 10:25:43;;;;;;;7.92;3.72;;;;;;;27.07;38.93;99853.61;1709648;83;21146;-70
2022/06/24 10:28:10;;;;;;;10.82;3.90;;;;;;;26.92;39.14;99854.30;1702169;83;21082;-69
2022/06/24 10:30:57;;;;;;;7.45;3.70;;;;;;;26.78;39.77;99854.98;1709741;83;21142;-70
2022/06/24 10:33:26;;;;;;;5.42;3.67;;;;;;;26.48;39.20;99845.12;1671151;78;21572;-70
2022/06/24 10:36:05;;;;;;;4.78;3.77;;;;;;;26.27;40.47;99846.08;1694646;84;21653;-71
2022/06/24 10:38:42;;;;;;;6.15;3.85;;;;;;;26.28;40.31;99847.78;1695125;84;21092;-70
2022/06/24 10:41:13;;;;;;;7.47;3.70;;;;;;;26.39;40.67;99843.42;1694685;83;21113;-71
2022/06/24 10:43:42;;;;;;;6.47;3.30;;;;;;;26.51;39.95;99841.25;1694817;84;22165;-71
2022/06/24 10:46:17;;;;;;;6.47;3.80;;;;;;;26.62;39.59;99834.68;1697489;83;21148;-71
2022/06/24 10:48:55;;;;;;;6.58;3.50;;;;;;;26.77;39.35;99843.30;1699908;80;21052;-71
2022/06/24 10:51:23;;;;;;;8.73;3.62;;;;;;;26.82;39.08;99841.95;1695839;84;21072;-70
2022/06/24 10:54:09;;;;;;;5.80;3.55;;;;;;;26.86;38.69;99837.40;1695812;84;21573;-71
2022/06/24 10:56:45;;;;;;;4.40;3.20;;;;;;;26.98;38.12;99832.49;1695819;84;21533;-71
2022/06/24 10:59:13;;;;;;;5.10;3.37;;;;;;;27.16;38.57;99829.61;1695932;84;21120;-71
2022/06/24 11:01:59;;;;;;;7.33;3.80;;;;;;;27.57;38.00;99826.84;1695601;81;21064;-74
2022/06/24 11:04:28;;;;;;;5.65;3.45;;;;;;;27.93;37.51;99818.25;1685834;85;21080;-73
2022/06/24 11:07:15;;;;;;;8.08;3.35;;;;;;;28.33;36.47;99817.70;1662485;85;21578;-72
2022/06/24 11:09:42;;;;;;;5.62;3.22;;;;;;;28.45;35.58;99825.20;1686041;85;21092;-71
2022/06/24 11:12:26;;;;;;;8.23;3.60;;;;;;;28.48;35.30;99814.55;1685831;85;21542;-71
2022/06/24 11:14:53;;;;;;;7.90;3.12;;;;;;;28.59;34.81;99803.81;1684335;85;21085;-73
2022/06/24 11:17:25;;;;;;;7.15;2.92;;;;;;;28.60;34.88;99816.36;1686070;85;21049;-71
2022/06/24 11:19:52;;;;;;;7.40;3.33;;;;;;;28.84;34.72;99811.23;1685958;85;21148;-72
2022/06/24 11:22:19;;;;;;;9.90;3.10;;;;;;;29.00;34.25;99807.01;1685801;85;21088;-70
2022/06/24 11:24:47;;;;;;;4.22;3.30;;;;;;;28.96;33.84;99812.46;1686318;82;21060;-71
2022/06/24 11:27:14;;;;;;;3.72;2.90;;;;;;;28.89;33.71;99812.88;1685619;85;21297;-71
2022/06/24 11:29:56;;;;;;;5.45;2.95;;;;;;;28.83;32.85;99809.56;1686205;84;21074;-71
2022/06/24 11:32:24;;;;;;;6.30;3.80;;;;;;;28.81;33.89;99808.89;1703176;80;21071;-70
2022/06/24 11:34:51;;;;;;;7.35;3.77;;;;;;;29.04;34.33;99802.91;1763046;81;21120;-71
2022/06/24 11:37:24;;;;;;;7.42;3.25;;;;;;;29.38;33.03;99799.35;1763152;81;21525;-71
2022/06/24 11:39:53;;;;;;;6.80;3.10;;;;;;;29.48;33.12;99809.42;1763313;81;21037;-70
2022/06/24 11:42:21;;;;;;;4.03;2.98;;;;;;;29.40;33.30;99800.88;1763011;80;21016;-71
2022/06/24 11:44:51;;;;;;;4.53;2.98;;;;;;;29.44;31.87;99785.89;1763608;81;21023;-71
2022/06/24 11:47:32;;;;;;;8.40;3.72;;;;;;;29.60;32.99;99789.44;1751809;78;21172;-70
2022/06/24 11:49:59;;;;;;;6.75;3.15;;;;;;;29.75;32.94;99787.59;1693252;84;21409;-71
2022/06/24 11:52:25;;;;;;;3.20;2.77;;;;;;;29.91;31.25;99779.75;1671553;84;21565;-71
2022/06/24 11:54:52;;;;;;;6.10;3.70;;;;;;;29.67;31.49;99790.37;1671773;84;21072;-70
2022/06/24 11:57:21;;;;;;;4.85;2.80;;;;;;;29.34;31.87;99792.12;1693137;84;21064;-72
2022/06/24 11:59:50;;;;;;;3.95;2.90;;;;;;;29.22;31.44;99783.61;1693165;84;21076;-73
2022/06/24 12:02:17;;;;;;;9.10;4.20;;;;;;;29.30;32.19;99760.98;1694008;79;22841;-72
2022/06/24 12:04:47;;;;;;;10.00;3.42;;;;;;;29.49;30.81;99777.19;1695752;84;21060;-71
2022/06/24 12:07:12;;;;;;;5.45;2.52;;;;;;;29.61;31.24;99781.61;1695707;83;21601;-71
2022/06/24 12:09:41;;;;;;;5.97;3.67;;;;;;;29.68;30.87;99779.36;1664654;84;21092;-71
2022/06/24 12:12:13;;;;;;;5.42;3.15;;;;;;;29.74;30.12;99768.78;1663635;84;21077;-72